Time;durP1;ratioP1;P1;durP2;ratioP2;P2;SDS_P1;SDS_P2;PMS_P1;PMS_P2;Temp;Humidity;BMP_temperature;BMP_pressure;BME280_temperature;BME280_humidity;BME280_pressure;Samples;Min_cycle;Max_cycle;Signal;HPM_P1;HPM_P2
2023/12/16 00:04:58;;;;;;;42.70;23.80;;;;;;;3.55;65.63;100816.92;232304;200;149781;-57
2023/12/16 00:10:02;;;;;;;41.70;23.60;;;;;;;3.61;65.55;100815.33;232389;197;137494;-63
2023/12/16 00:15:09;;;;;;;44.90;23.20;;;;;;;3.60;65.66;100810.94;232585;203;137808;-58
2023/12/16 00:20:12;;;;;;;39.10;21.80;;;;;;;3.65;65.70;100816.88;232109;198;150674;-56
2023/12/16 00:25:15;;;;;;;39.60;21.30;;;;;;;3.69;65.56;100819.84;232124;204;137537;-59
2023/12/16 00:30:18;;;;;;;40.10;22.50;;;;;;;3.74;65.67;100835.27;232382;203;138006;-58
2023/12/16 00:35:21;;;;;;;39.40;20.90;;;;;;;3.76;65.79;100845.08;232275;204;151405;-58
2023/12/16 00:40:25;;;;;;;39.50;21.50;;;;;;;3.75;65.87;100847.02;232324;203;137353;-59
2023/12/16 00:45:28;;;;;;;33.90;18.80;;;;;;;3.83;65.86;100826.27;232491;197;137416;-59
2023/12/16 00:50:31;;;;;;;36.00;19.20;;;;;;;3.90;65.57;100805.86;232122;204;150015;-58
2023/12/16 00:55:34;;;;;;;35.90;18.90;;;;;;;3.93;65.45;100811.27;232337;204;136955;-58
2023/12/16 01:00:38;;;;;;;36.20;19.90;;;;;;;3.99;65.40;100823.71;232394;204;136810;-59
2023/12/16 01:05:42;;;;;;;33.80;19.20;;;;;;;4.04;65.36;100838.42;232309;203;149463;-58
2023/12/16 01:10:45;;;;;;;30.60;17.50;;;;;;;4.03;65.36;100833.16;232383;203;136435;-57
2023/12/16 01:15:48;;;;;;;32.20;17.90;;;;;;;4.10;65.42;100822.40;232442;203;137769;-58
2023/12/16 01:20:51;;;;;;;31.30;18.60;;;;;;;4.12;65.30;100821.70;231767;203;149920;-59
2023/12/16 01:25:54;;;;;;;34.70;18.70;;;;;;;4.12;65.34;100819.58;231822;204;138934;-57
2023/12/16 01:30:57;;;;;;;32.30;18.10;;;;;;;4.14;65.34;100818.34;232274;204;137431;-58
2023/12/16 01:36:01;;;;;;;32.80;17.80;;;;;;;4.14;65.27;100816.40;232292;196;149397;-60
2023/12/16 01:41:04;;;;;;;35.90;18.00;;;;;;;4.09;65.36;100819.08;231818;197;136555;-57
2023/12/16 01:46:07;;;;;;;34.00;18.90;;;;;;;4.11;65.40;100821.34;232406;203;137489;-57
2023/12/16 01:51:11;;;;;;;34.70;18.20;;;;;;;4.06;65.44;100816.11;232272;203;149649;-58
2023/12/16 01:56:15;;;;;;;35.10;18.50;;;;;;;4.05;65.78;100812.42;231943;197;138259;-57
2023/12/16 02:01:19;;;;;;;29.90;17.00;;;;;;;4.14;65.72;100810.61;232363;200;137457;-58
2023/12/16 02:06:22;;;;;;;30.40;17.00;;;;;;;4.26;65.56;100806.11;232166;201;150769;-57
2023/12/16 02:11:26;;;;;;;30.60;16.90;;;;;;;4.35;65.36;100809.57;232312;197;137560;-57
2023/12/16 02:16:29;;;;;;;27.50;16.40;;;;;;;4.44;65.06;100810.37;232378;204;136756;-57
2023/12/16 02:21:32;;;;;;;27.90;16.00;;;;;;;4.48;65.04;100825.81;232005;203;149641;-55
2023/12/16 02:26:35;;;;;;;25.60;14.70;;;;;;;4.51;64.94;100836.84;232270;203;137981;-55
2023/12/16 02:31:38;;;;;;;25.30;15.20;;;;;;;4.44;64.99;100842.18;231991;197;137958;-57
2023/12/16 02:36:41;;;;;;;26.40;15.90;;;;;;;4.47;65.03;100843.20;232315;204;149721;-56
2023/12/16 02:41:45;;;;;;;32.70;17.00;;;;;;;4.51;65.09;100845.45;232271;196;137482;-58
2023/12/16 02:46:48;;;;;;;31.80;18.20;;;;;;;4.52;65.42;100849.66;232090;204;136635;-55
2023/12/16 02:51:52;;;;;;;29.80;17.00;;;;;;;4.48;65.19;100847.94;232230;204;149882;-57
2023/12/16 02:56:55;;;;;;;27.60;16.10;;;;;;;4.42;65.50;100845.18;232399;203;137323;-59
2023/12/16 03:01:58;;;;;;;26.30;14.80;;;;;;;4.44;65.69;100843.94;231696;203;137199;-59
2023/12/16 03:07:02;;;;;;;22.60;13.90;;;;;;;4.45;66.14;100837.25;232395;204;150496;-54
2023/12/16 03:12:06;;;;;;;24.20;14.20;;;;;;;4.45;66.61;100841.13;232174;197;136704;-57
2023/12/16 03:17:09;;;;;;;23.20;12.60;;;;;;;4.52;67.11;100849.66;232351;204;137801;-59
2023/12/16 03:22:13;;;;;;;21.50;13.60;;;;;;;4.58;67.34;100859.29;231745;203;150764;-57
2023/12/16 03:27:16;;;;;;;23.40;12.80;;;;;;;4.59;67.43;100870.19;232385;201;139919;-56
2023/12/16 03:32:19;;;;;;;21.50;12.60;;;;;;;4.60;67.79;100876.85;231898;204;137758;-58
2023/12/16 03:37:22;;;;;;;22.50;12.60;;;;;;;4.69;67.97;100877.13;232273;201;149359;-56
2023/12/16 03:42:26;;;;;;;16.50;11.10;;;;;;;4.81;68.14;100878.61;231955;197;137865;-57
2023/12/16 03:47:29;;;;;;;22.20;12.30;;;;;;;4.87;68.31;100885.59;232398;200;136519;-56
2023/12/16 03:52:32;;;;;;;23.30;13.20;;;;;;;4.91;68.42;100883.79;232308;204;149641;-56
2023/12/16 03:57:35;;;;;;;23.60;14.00;;;;;;;4.87;68.32;100882.60;232501;197;137153;-57
2023/12/16 04:02:39;;;;;;;22.10;14.00;;;;;;;4.87;68.55;100886.64;232240;204;136737;-57
2023/12/16 04:07:42;;;;;;;20.80;13.80;;;;;;;4.82;69.04;100894.07;231853;204;150053;-57
2023/12/16 04:12:45;;;;;;;21.40;13.60;;;;;;;4.82;69.08;100893.73;232373;200;136744;-58
2023/12/16 04:17:48;;;;;;;23.70;14.00;;;;;;;4.79;69.45;100880.39;232356;204;137089;-57
2023/12/16 04:22:52;;;;;;;23.00;13.50;;;;;;;4.80;69.52;100868.59;232286;201;149752;-57
2023/12/16 04:27:55;;;;;;;20.70;13.00;;;;;;;4.81;69.49;100869.45;232476;203;137927;-57
2023/12/16 04:32:59;;;;;;;21.40;13.00;;;;;;;4.80;69.32;100875.11;232454;204;136961;-57
2023/12/16 04:38:03;;;;;;;19.30;12.30;;;;;;;4.82;69.29;100879.48;232278;197;151345;-57
2023/12/16 04:43:06;;;;;;;21.90;12.90;;;;;;;4.88;69.05;100879.25;232249;197;156372;-55
2023/12/16 04:48:09;;;;;;;19.40;12.70;;;;;;;4.96;68.96;100886.91;232445;204;136952;-55
2023/12/16 04:53:12;;;;;;;21.40;13.80;;;;;;;5.01;68.85;100896.55;232335;195;150272;-56
2023/12/16 04:58:16;;;;;;;19.40;12.80;;;;;;;4.97;68.89;100905.36;232418;200;137420;-56
2023/12/16 05:03:19;;;;;;;21.60;13.60;;;;;;;5.00;68.98;100907.98;231644;197;136521;-55
2023/12/16 05:08:22;;;;;;;20.50;12.90;;;;;;;4.95;68.95;100900.11;232176;204;149361;-55
2023/12/16 05:13:26;;;;;;;20.20;12.90;;;;;;;4.92;69.18;100901.36;231841;204;136852;-57
2023/12/16 05:18:29;;;;;;;22.60;13.30;;;;;;;4.88;69.26;100916.88;232170;203;137608;-56
2023/12/16 05:23:33;;;;;;;22.20;13.90;;;;;;;4.86;69.29;100930.27;232348;200;151372;-55
2023/12/16 05:28:36;;;;;;;21.10;13.60;;;;;;;4.87;69.38;100929.38;232276;200;137218;-56
2023/12/16 05:33:39;;;;;;;19.10;12.70;;;;;;;4.98;69.45;100924.89;232063;197;138515;-57
2023/12/16 05:38:42;;;;;;;21.60;13.30;;;;;;;5.08;69.17;100926.03;232374;203;151509;-57
2023/12/16 05:43:46;;;;;;;20.90;13.80;;;;;;;5.21;68.92;100929.08;232347;197;138002;-57
2023/12/16 05:48:49;;;;;;;20.10;13.20;;;;;;;5.32;68.52;100936.55;231926;204;140069;-59
2023/12/16 05:53:52;;;;;;;19.00;12.40;;;;;;;5.28;68.08;100946.61;232091;197;151689;-59
2023/12/16 05:58:56;;;;;;;20.30;12.40;;;;;;;5.23;68.28;100952.28;232307;201;136630;-57
2023/12/16 06:03:59;;;;;;;18.10;11.70;;;;;;;5.22;68.12;100963.38;232311;198;136968;-58
2023/12/16 06:09:03;;;;;;;19.00;11.60;;;;;;;5.18;68.06;100969.74;232422;203;154167;-63
2023/12/16 06:14:06;;;;;;;18.80;12.40;;;;;;;5.13;68.25;100968.03;232363;200;152847;-59
2023/12/16 06:19:09;;;;;;;20.90;11.90;;;;;;;5.11;68.42;100978.95;232091;202;138666;-58
2023/12/16 06:24:13;;;;;;;18.60;11.80;;;;;;;5.14;68.52;100980.87;232312;196;151315;-56
2023/12/16 06:29:16;;;;;;;16.80;11.60;;;;;;;5.16;68.43;100979.97;232324;204;137159;-57
2023/12/16 06:34:19;;;;;;;15.80;10.50;;;;;;;5.18;68.48;100989.11;231893;203;137891;-58
2023/12/16 06:39:23;;;;;;;19.40;12.30;;;;;;;5.24;68.38;100989.76;231931;203;152092;-56
2023/12/16 06:44:26;;;;;;;18.50;11.10;;;;;;;5.30;68.39;100993.75;231840;204;136976;-58
2023/12/16 06:49:29;;;;;;;19.50;11.50;;;;;;;5.41;68.47;100993.11;232317;197;139537;-58
2023/12/16 06:54:33;;;;;;;19.20;11.00;;;;;;;5.48;68.57;100992.34;231786;204;151372;-55
2023/12/16 06:59:36;;;;;;;15.10;10.10;;;;;;;5.51;68.69;100994.26;232355;200;138617;-58
2023/12/16 07:04:39;;;;;;;17.30;10.40;;;;;;;5.47;68.63;100993.08;232223;201;137858;-59
2023/12/16 07:09:43;;;;;;;16.30;10.20;;;;;;;5.43;68.79;101002.77;232439;204;151434;-58
2023/12/16 07:15:00;;;;;;;18.80;10.10;;;;;;;5.42;68.93;101009.30;232030;203;137026;-58
2023/12/16 07:20:05;;;;;;;32.90;23.90;;;;;;;5.42;69.15;101011.59;231989;198;136691;-58
2023/12/16 07:25:08;;;;;;;16.10;10.50;;;;;;;5.49;69.70;101008.89;232270;203;153263;-59
2023/12/16 07:30:12;;;;;;;16.60;9.40;;;;;;;5.59;69.54;101004.23;232036;197;138412;-56
2023/12/16 07:35:15;;;;;;;14.70;9.90;;;;;;;5.67;69.16;101010.83;232310;200;137407;-61
2023/12/16 07:40:18;;;;;;;23.20;9.90;;;;;;;5.74;68.83;101011.62;231946;201;151696;-61
2023/12/16 07:45:21;;;;;;;16.50;10.50;;;;;;;5.81;68.61;101009.63;232191;203;138646;-62
2023/12/16 07:50:24;;;;;;;16.50;10.20;;;;;;;5.84;68.36;101016.27;232240;198;137074;-62
2023/12/16 07:55:29;;;;;;;17.40;10.70;;;;;;;5.81;68.31;101015.25;232325;197;152348;-61
2023/12/16 08:00:32;;;;;;;87.10;56.50;;;;;;;5.82;68.51;101010.30;232233;201;136750;-62
2023/12/16 08:05:35;;;;;;;18.00;11.90;;;;;;;5.90;68.19;101012.86;232299;201;136922;-63
2023/12/16 08:10:39;;;;;;;18.60;11.20;;;;;;;5.90;68.04;101008.64;232062;204;151870;-62
2023/12/16 08:15:43;;;;;;;17.30;11.10;;;;;;;5.87;68.00;101014.67;231963;200;137014;-62
2023/12/16 08:20:46;;;;;;;23.30;17.00;;;;;;;5.86;68.06;101020.84;232153;204;137771;-62
2023/12/16 08:25:50;;;;;;;18.50;11.00;;;;;;;5.93;68.17;101022.72;232244;196;153807;-63
2023/12/16 08:30:53;;;;;;;20.20;10.70;;;;;;;5.97;67.90;101019.87;232189;197;137419;-63
2023/12/16 08:35:57;;;;;;;22.80;10.90;;;;;;;6.03;67.59;101015.58;232131;197;137112;-62
2023/12/16 08:41:03;;;;;;;17.30;10.40;;;;;;;6.10;67.54;101014.97;232349;203;152921;-63
2023/12/16 08:46:06;;;;;;;18.00;11.10;;;;;;;6.11;67.25;101021.12;232277;203;136628;-62
2023/12/16 08:51:10;;;;;;;20.20;11.40;;;;;;;6.15;67.30;101021.77;232447;200;137492;-62
2023/12/16 08:56:14;;;;;;;20.70;11.70;;;;;;;6.14;67.22;101015.44;231874;204;151220;-61
2023/12/16 09:01:17;;;;;;;19.80;11.60;;;;;;;6.15;67.23;101016.31;231971;204;137414;-61
2023/12/16 09:06:21;;;;;;;226.20;151.80;;;;;;;6.11;67.05;101016.17;232158;204;137351;-59
2023/12/16 09:11:25;;;;;;;161.60;103.10;;;;;;;6.08;67.47;101020.62;231872;204;151392;-63
2023/12/16 09:16:28;;;;;;;22.60;13.60;;;;;;;6.17;67.33;101019.80;232267;204;137114;-63
2023/12/16 09:21:31;;;;;;;21.20;11.00;;;;;;;6.13;67.07;101018.98;232367;204;137321;-62
2023/12/16 09:26:35;;;;;;;17.80;10.10;;;;;;;6.13;67.18;101017.23;232195;203;151538;-63
2023/12/16 09:31:38;;;;;;;19.40;10.20;;;;;;;6.23;67.13;101022.20;231329;203;138116;-60
2023/12/16 09:36:41;;;;;;;20.80;11.10;;;;;;;6.32;67.23;101028.44;232060;200;138345;-59
2023/12/16 09:41:45;;;;;;;16.90;10.20;;;;;;;6.32;67.41;101033.02;232022;196;151334;-60
2023/12/16 09:46:49;;;;;;;21.50;11.70;;;;;;;6.33;67.54;101043.95;231935;202;137029;-63
2023/12/16 09:51:52;;;;;;;20.50;11.20;;;;;;;6.38;67.40;101039.98;232426;197;137573;-61
2023/12/16 09:56:57;;;;;;;38.40;23.60;;;;;;;6.36;67.49;101030.85;232124;204;152834;-61
2023/12/16 10:02:06;;;;;;;19.70;11.60;;;;;;;6.42;67.38;101030.96;232138;204;136395;-61
2023/12/16 10:07:09;;;;;;;20.10;11.70;;;;;;;6.39;67.26;101033.10;232348;200;136869;-62
2023/12/16 10:12:12;;;;;;;17.70;10.70;;;;;;;6.47;67.28;101035.65;232311;203;151466;-61
2023/12/16 10:17:16;;;;;;;19.50;11.10;;;;;;;6.56;67.16;101033.76;232165;201;137170;-60
2023/12/16 10:22:20;;;;;;;23.40;11.90;;;;;;;6.65;66.68;101033.99;232325;201;138432;-61
2023/12/16 10:27:24;;;;;;;153.30;84.10;;;;;;;6.74;66.52;101029.46;232102;201;151444;-56
2023/12/16 10:32:27;;;;;;;24.80;13.60;;;;;;;6.84;66.54;101040.42;232198;197;136735;-63
2023/12/16 10:37:30;;;;;;;18.50;12.00;;;;;;;6.81;66.08;101049.13;232229;203;137227;-64
2023/12/16 10:42:34;;;;;;;20.30;11.50;;;;;;;6.73;65.98;101035.66;232216;197;153090;-64
2023/12/16 10:47:39;;;;;;;20.00;11.40;;;;;;;6.62;66.23;101031.04;232113;202;136838;-64
2023/12/16 10:52:51;;;;;;;21.40;11.60;;;;;;;6.59;66.62;101031.27;232247;203;137544;-65
2023/12/16 10:58:01;;;;;;;18.80;11.70;;;;;;;6.63;66.53;101032.61;232108;202;151964;-64
2023/12/16 11:03:10;;;;;;;22.30;11.80;;;;;;;6.56;66.58;101024.23;232386;196;137858;-65
2023/12/16 11:08:14;;;;;;;21.90;11.90;;;;;;;6.62;66.71;101014.98;232018;202;138545;-64
2023/12/16 11:13:18;;;;;;;19.90;11.20;;;;;;;6.69;66.72;101009.60;231877;197;151814;-64
2023/12/16 11:18:26;;;;;;;17.70;10.70;;;;;;;6.68;66.74;101004.50;231812;203;137054;-64
2023/12/16 11:23:30;;;;;;;17.50;10.60;;;;;;;6.69;66.90;101002.20;232232;203;138766;-63
2023/12/16 11:28:34;;;;;;;19.20;10.40;;;;;;;6.65;67.09;100999.08;231994;203;151444;-64
2023/12/16 11:33:42;;;;;;;17.40;10.60;;;;;;;6.57;67.37;100994.98;232186;200;136541;-63
2023/12/16 11:38:47;;;;;;;17.60;10.10;;;;;;;6.55;67.70;100994.47;232181;201;138068;-62
2023/12/16 11:43:53;;;;;;;15.70;10.10;;;;;;;6.56;67.79;100995.85;232152;204;153675;-61
2023/12/16 11:48:57;;;;;;;15.40;8.90;;;;;;;6.64;67.87;100989.75;232106;197;137495;-61
2023/12/16 11:54:03;;;;;;;17.70;10.30;;;;;;;6.74;67.70;100986.08;232058;197;141261;-63
2023/12/16 11:59:07;;;;;;;17.10;10.50;;;;;;;6.83;67.44;100978.00;232308;200;151138;-61
2023/12/16 12:04:11;;;;;;;19.50;10.60;;;;;;;6.81;67.48;100977.14;232300;203;137575;-62
2023/12/16 12:09:14;;;;;;;19.60;11.20;;;;;;;6.70;67.65;100977.84;232436;200;136881;-61
2023/12/16 12:14:17;;;;;;;16.60;10.70;;;;;;;6.72;67.91;100978.33;232193;203;151481;-63
2023/12/16 12:19:21;;;;;;;24.30;11.10;;;;;;;6.75;67.78;100977.59;232160;204;141076;-61
2023/12/16 12:24:25;;;;;;;18.80;11.30;;;;;;;6.77;68.04;100973.50;232170;201;137620;-62
2023/12/16 12:29:51;;;;;;;22.40;12.10;;;;;;;6.84;67.89;100962.45;232319;203;151905;-63
2023/12/16 12:34:59;;;;;;;26.30;10.80;;;;;;;6.87;67.74;100949.52;232166;200;136824;-62
2023/12/16 12:40:13;;;;;;;19.60;11.20;;;;;;;6.91;67.47;100947.70;232032;200;137957;-60
2023/12/16 12:45:37;;;;;;;22.30;12.50;;;;;;;6.95;67.57;100941.64;232292;204;152208;-61
2023/12/16 12:50:42;;;;;;;19.80;12.30;;;;;;;7.00;67.33;100925.85;232260;200;139097;-61
2023/12/16 12:55:46;;;;;;;24.90;13.40;;;;;;;7.01;67.39;100924.61;231489;202;137258;-58
2023/12/16 13:00:49;;;;;;;18.50;12.30;;;;;;;7.03;67.11;100937.09;232111;197;153104;-60
2023/12/16 13:05:52;;;;;;;20.00;11.90;;;;;;;7.02;67.35;100937.83;232301;198;136769;-60
2023/12/16 13:10:59;;;;;;;20.80;13.00;;;;;;;7.03;67.16;100938.16;232310;204;138473;-60
2023/12/16 13:16:02;;;;;;;21.30;11.90;;;;;;;7.05;67.25;100936.17;232351;203;151841;-60
2023/12/16 13:21:06;;;;;;;21.60;12.60;;;;;;;7.05;67.07;100926.28;232089;204;137441;-61
2023/12/16 13:26:12;;;;;;;21.50;12.90;;;;;;;7.11;67.14;100921.60;232074;197;137782;-60
2023/12/16 13:31:15;;;;;;;21.00;12.70;;;;;;;7.15;67.05;100920.65;232058;204;151933;-59
2023/12/16 13:36:19;;;;;;;17.60;11.00;;;;;;;7.17;67.49;100924.85;232147;202;137941;-63
2023/12/16 13:41:42;;;;;;;18.80;12.40;;;;;;;7.14;67.67;100923.13;232371;197;136673;-61
2023/12/16 13:46:46;;;;;;;19.10;11.40;;;;;;;7.17;67.94;100927.15;232236;203;152175;-61
2023/12/16 13:51:49;;;;;;;20.90;12.70;;;;;;;7.16;67.87;100929.45;232160;198;136594;-60
2023/12/16 13:56:52;;;;;;;18.20;11.70;;;;;;;7.17;67.76;100939.68;232134;198;137797;-60
2023/12/16 14:01:55;;;;;;;20.80;11.30;;;;;;;7.08;67.99;100941.41;232162;200;151556;-62
2023/12/16 14:06:59;;;;;;;17.40;11.00;;;;;;;6.99;68.25;100951.45;232334;204;136409;-61
2023/12/16 14:12:03;;;;;;;17.20;10.10;;;;;;;6.93;68.45;100935.50;232247;203;138959;-60
2023/12/16 14:17:06;;;;;;;19.10;12.10;;;;;;;6.97;68.80;100915.13;232112;204;151660;-61
2023/12/16 14:22:10;;;;;;;23.10;13.50;;;;;;;7.10;68.73;100925.66;231999;198;137291;-61
2023/12/16 14:27:13;;;;;;;20.10;12.10;;;;;;;7.16;68.71;100924.88;232388;204;138328;-61
2023/12/16 14:32:16;;;;;;;19.90;11.40;;;;;;;7.12;68.68;100923.34;232160;203;151427;-62
2023/12/16 14:37:20;;;;;;;20.50;11.00;;;;;;;7.04;68.93;100909.89;232295;201;137158;-62
2023/12/16 14:42:23;;;;;;;19.10;11.50;;;;;;;7.02;69.20;100909.59;232233;202;137715;-61
2023/12/16 14:47:26;;;;;;;21.30;12.00;;;;;;;7.03;69.37;100912.03;232298;200;152029;-56
2023/12/16 14:52:30;;;;;;;16.60;10.40;;;;;;;7.02;69.40;100918.23;232242;197;139016;-55
2023/12/16 14:57:35;;;;;;;17.70;10.80;;;;;;;6.96;69.76;100917.63;232455;203;137265;-56
2023/12/16 15:02:39;;;;;;;;;;;;;;;6.93;69.93;100917.14;232267;198;151708;-56
2023/12/16 15:07:43;;;;;;;20.80;11.30;;;;;;;6.98;70.25;100918.64;232244;200;135738;-54
2023/12/16 15:12:47;;;;;;;18.70;11.90;;;;;;;7.06;70.06;100923.80;232156;204;138995;-56
2023/12/16 15:17:51;;;;;;;19.30;11.60;;;;;;;7.13;70.13;100921.40;232199;204;153183;-55
2023/12/16 15:22:55;;;;;;;20.30;12.80;;;;;;;7.15;70.28;100922.58;231817;203;138252;-56
2023/12/16 15:27:58;;;;;;;21.10;12.50;;;;;;;7.12;70.26;100919.63;232436;201;138455;-55
2023/12/16 15:33:01;;;;;;;24.30;12.20;;;;;;;7.12;70.44;100919.80;232207;204;151736;-56
2023/12/16 15:38:05;;;;;;;19.10;12.40;;;;;;;7.11;70.36;100925.31;232208;200;139122;-55
2023/12/16 15:43:09;;;;;;;19.80;12.80;;;;;;;7.08;70.56;100923.05;232313;204;136598;-55
2023/12/16 15:48:12;;;;;;;18.90;12.00;;;;;;;7.06;70.68;100922.56;232254;201;151567;-56
2023/12/16 15:53:16;;;;;;;20.30;12.80;;;;;;;7.03;71.04;100922.44;232106;204;138298;-55
2023/12/16 15:58:19;;;;;;;22.00;13.10;;;;;;;7.07;71.19;100921.50;232279;204;138387;-54
2023/12/16 16:03:22;;;;;;;22.20;13.00;;;;;;;7.10;71.35;100920.72;232393;197;151853;-54
2023/12/16 16:08:26;;;;;;;22.80;13.20;;;;;;;7.08;71.59;100922.52;232292;204;137626;-52
2023/12/16 16:13:29;;;;;;;23.30;14.00;;;;;;;7.11;71.62;100919.66;232200;197;270683;-55
2023/12/16 16:18:32;;;;;;;24.10;14.30;;;;;;;7.08;71.65;100927.83;232295;200;152669;-55
2023/12/16 16:23:36;;;;;;;24.40;14.90;;;;;;;7.04;71.72;100922.42;232327;203;137719;-55
2023/12/16 16:28:39;;;;;;;24.40;15.00;;;;;;;7.06;71.70;100918.87;232338;204;136576;-56
2023/12/16 16:33:42;;;;;;;26.90;15.40;;;;;;;7.09;71.60;100917.91;232347;200;152218;-56
2023/12/16 16:38:45;;;;;;;22.90;14.30;;;;;;;7.07;71.49;100913.54;232251;202;137528;-55
2023/12/16 16:43:49;;;;;;;24.40;14.90;;;;;;;7.06;71.48;100913.76;232123;204;140144;-55
2023/12/16 16:48:52;;;;;;;28.80;17.60;;;;;;;7.14;71.36;100910.43;232331;204;151940;-54
2023/12/16 16:53:55;;;;;;;26.00;16.80;;;;;;;7.21;71.06;100908.35;232290;204;140129;-56
2023/12/16 16:58:58;;;;;;;28.60;17.50;;;;;;;7.24;70.86;100903.90;232373;204;137437;-55
2023/12/16 17:04:03;;;;;;;28.60;16.90;;;;;;;7.22;70.69;100904.99;232450;201;152432;-55
2023/12/16 17:09:09;;;;;;;27.70;17.20;;;;;;;7.12;70.82;100909.58;232315;204;136729;-55
2023/12/16 17:14:13;;;;;;;29.80;17.40;;;;;;;7.08;70.88;100913.53;232203;203;137728;-55
2023/12/16 17:19:17;;;;;;;29.70;17.00;;;;;;;7.02;71.19;100917.70;232238;204;152162;-55
2023/12/16 17:24:21;;;;;;;28.30;16.70;;;;;;;7.05;71.30;100913.40;232109;204;137211;-53
2023/12/16 17:29:24;;;;;;;27.20;17.00;;;;;;;7.09;71.06;100915.80;232231;197;139229;-54
2023/12/16 17:34:27;;;;;;;26.80;16.20;;;;;;;7.19;70.96;100912.10;232285;204;153144;-56
2023/12/16 17:39:31;;;;;;;29.50;17.20;;;;;;;7.15;70.85;100912.70;232343;204;137382;-56
2023/12/16 17:44:34;;;;;;;25.60;16.40;;;;;;;7.14;70.76;100917.31;232139;197;138791;-56
2023/12/16 17:49:39;;;;;;;26.00;16.00;;;;;;;7.15;70.73;100916.58;232316;204;151393;-56
2023/12/16 17:54:42;;;;;;;27.90;16.70;;;;;;;7.16;70.63;100916.74;232240;204;140262;-54
2023/12/16 17:59:45;;;;;;;32.60;18.30;;;;;;;7.15;70.58;100918.16;232212;203;137593;-59
2023/12/16 18:04:49;;;;;;;26.90;17.10;;;;;;;7.10;70.52;100916.31;232242;201;151172;-61
2023/12/16 18:09:52;;;;;;;24.20;16.00;;;;;;;7.10;70.55;100923.91;232318;199;137835;-62
2023/12/16 18:14:55;;;;;;;24.30;15.70;;;;;;;7.09;70.64;100919.34;232381;197;137202;-60
2023/12/16 18:19:58;;;;;;;26.80;15.90;;;;;;;7.08;70.74;100919.89;232205;201;151360;-60
2023/12/16 18:25:02;;;;;;;27.70;16.30;;;;;;;7.14;70.62;100921.71;232248;204;138859;-59
2023/12/16 18:30:06;;;;;;;30.00;16.90;;;;;;;7.20;70.43;100918.45;232140;201;137993;-58
2023/12/16 18:35:10;;;;;;;29.10;17.10;;;;;;;7.21;70.29;100916.48;232225;201;151544;-59
2023/12/16 18:40:14;;;;;;;25.10;16.40;;;;;;;7.25;70.24;100921.34;232039;199;137429;-61
2023/12/16 18:45:26;;;;;;;26.70;16.10;;;;;;;7.23;69.89;100931.27;232263;204;139348;-60
2023/12/16 18:50:29;;;;;;;27.40;15.90;;;;;;;7.19;70.00;100923.40;232109;204;151450;-60
2023/12/16 18:55:32;;;;;;;29.80;16.80;;;;;;;7.16;69.81;100922.74;232113;201;136646;-60
2023/12/16 19:00:37;;;;;;;26.20;16.60;;;;;;;7.09;69.97;100921.98;232243;203;137843;-60
2023/12/16 19:05:40;;;;;;;26.10;15.20;;;;;;;7.07;70.04;100922.91;232326;200;152446;-60
2023/12/16 19:10:43;;;;;;;26.20;15.60;;;;;;;7.11;70.06;100922.11;232167;203;137524;-59
2023/12/16 19:15:46;;;;;;;25.50;15.70;;;;;;;7.15;69.72;100918.88;232150;203;137272;-62
2023/12/16 19:20:49;;;;;;;22.90;15.20;;;;;;;7.21;69.64;100920.02;232377;204;151705;-61
2023/12/16 19:25:53;;;;;;;25.20;16.30;;;;;;;7.27;69.36;100927.84;232317;197;137399;-60
2023/12/16 19:30:56;;;;;;;28.00;16.30;;;;;;;7.29;69.05;100922.86;232084;203;138870;-60
2023/12/16 19:35:59;;;;;;;25.90;17.40;;;;;;;7.28;68.83;100917.05;232264;203;151341;-59
2023/12/16 19:41:03;;;;;;;24.60;14.60;;;;;;;7.26;68.69;100921.69;232356;203;137770;-60
2023/12/16 19:46:07;;;;;;;28.20;16.10;;;;;;;7.18;68.67;100918.83;232456;200;136932;-62
2023/12/16 19:51:13;;;;;;;28.80;15.90;;;;;;;7.11;68.54;100915.06;232091;197;151489;-59
2023/12/16 19:56:16;;;;;;;26.60;15.00;;;;;;;7.07;68.78;100915.84;231809;198;140239;-61
2023/12/16 20:01:20;;;;;;;26.90;16.00;;;;;;;7.12;68.70;100912.92;232297;204;138004;-62
2023/12/16 20:06:25;;;;;;;25.40;15.20;;;;;;;7.17;68.61;100911.24;232362;200;151632;-62
2023/12/16 20:11:29;;;;;;;23.70;15.20;;;;;;;7.22;68.37;100913.63;232227;204;137402;-61
2023/12/16 20:16:32;;;;;;;25.90;15.70;;;;;;;7.21;68.15;100916.12;232214;204;139054;-61
2023/12/16 20:21:35;;;;;;;27.70;15.10;;;;;;;7.21;67.92;100918.08;232183;204;152710;-60
2023/12/16 20:26:38;;;;;;;24.20;15.40;;;;;;;7.20;67.89;100914.38;232179;197;137489;-61
2023/12/16 20:31:42;;;;;;;28.40;16.30;;;;;;;7.18;67.77;100891.45;231778;202;137356;-60
2023/12/16 20:36:46;;;;;;;24.80;14.50;;;;;;;7.17;67.58;100861.30;232325;200;151444;-61
2023/12/16 20:41:49;;;;;;;24.60;14.70;;;;;;;7.17;66.86;100862.36;232264;204;137501;-61
2023/12/16 20:46:52;;;;;;;23.40;13.20;;;;;;;7.13;66.75;100868.27;232206;204;137120;-62
2023/12/16 20:51:56;;;;;;;22.90;13.50;;;;;;;7.10;66.60;100870.95;232144;204;151299;-62
2023/12/16 20:56:59;;;;;;;18.50;12.10;;;;;;;7.08;66.60;100869.23;232323;204;136908;-63
2023/12/16 21:02:07;;;;;;;23.80;13.20;;;;;;;7.12;66.40;100861.21;232315;200;137201;-61
2023/12/16 21:07:11;;;;;;;23.20;13.30;;;;;;;7.17;66.29;100855.30;232033;197;151942;-62
2023/12/16 21:12:14;;;;;;;21.10;13.30;;;;;;;7.22;65.98;100846.91;232111;197;138160;-61
2023/12/16 21:17:18;;;;;;;25.50;14.10;;;;;;;7.18;65.96;100840.98;231872;203;138213;-60
2023/12/16 21:22:22;;;;;;;26.40;14.60;;;;;;;7.18;65.95;100833.73;232158;203;152224;-61
2023/12/16 21:27:25;;;;;;;25.40;13.30;;;;;;;7.15;65.81;100827.09;232232;204;138140;-62
2023/12/16 21:32:29;;;;;;;22.90;12.90;;;;;;;7.08;65.83;100821.76;232258;203;136512;-65
2023/12/16 21:37:32;;;;;;;22.70;14.00;;;;;;;7.04;65.80;100808.79;231648;198;153597;-60
2023/12/16 21:42:35;;;;;;;25.50;13.60;;;;;;;6.99;65.85;100816.45;232265;196;137697;-62
2023/12/16 21:47:39;;;;;;;22.70;13.80;;;;;;;6.94;65.83;100825.90;232322;203;136877;-61
2023/12/16 21:52:42;;;;;;;22.50;13.40;;;;;;;6.91;65.85;100823.13;232138;204;151312;-62
2023/12/16 21:57:45;;;;;;;23.90;12.10;;;;;;;6.89;65.47;100804.99;232286;197;138707;-61
2023/12/16 22:02:48;;;;;;;23.40;12.50;;;;;;;6.84;65.43;100805.96;232030;198;137123;-61
2023/12/16 22:07:52;;;;;;;23.90;12.60;;;;;;;6.79;65.32;100814.70;231946;197;151320;-62
2023/12/16 22:12:55;;;;;;;20.80;12.30;;;;;;;6.77;65.46;100809.81;232179;204;136876;-61
2023/12/16 22:17:58;;;;;;;21.40;11.70;;;;;;;6.75;65.34;100819.36;232167;204;137506;-59
2023/12/16 22:23:02;;;;;;;20.90;11.60;;;;;;;6.72;65.26;100806.55;232268;196;151453;-61
2023/12/16 22:28:05;;;;;;;21.30;11.80;;;;;;;6.64;65.32;100786.05;232494;204;140810;-61
2023/12/16 22:33:08;;;;;;;20.60;10.90;;;;;;;6.59;65.42;100783.31;232304;201;137188;-61
2023/12/16 22:38:12;;;;;;;21.70;10.80;;;;;;;6.54;65.41;100764.02;232231;204;151391;-60
2023/12/16 22:43:15;;;;;;;25.80;11.30;;;;;;;6.49;65.59;100793.53;232242;197;138047;-60
2023/12/16 22:48:18;;;;;;;21.40;10.50;;;;;;;6.51;65.70;100804.61;231786;204;137556;-59
2023/12/16 22:53:23;;;;;;;22.20;10.90;;;;;;;6.48;65.55;100793.21;231984;197;152005;-64
2023/12/16 22:58:26;;;;;;;19.00;11.00;;;;;;;6.45;65.59;100786.73;232038;197;137534;-61
2023/12/16 23:03:39;;;;;;;22.00;11.00;;;;;;;6.43;65.45;100798.06;232406;197;137485;-61